KHGR/HGR METAR and TAF weather

Enter ICAO airport designator
Station Type Date Time Source
KHGR METAR 2021/09/25 11:53 UTC NOAA

KHGR 251153Z 00000KT 10SM CLR 11/10 A3009 RMK AO2 SLP197 T01110100 10128 20100 53002 $


Station Type Date Time Source
KHGR Decoded METAR 2021/09/25 11:53 UTC NOAA

HAGERSTOWN REGIONAL AIRPORT, MD, United States (KHGR) 39-42N 077-44W 224M
Sep 25, 2021 - 07:53 AM EDT / 2021.09.25 1153 UTC
Wind: Calm:0
Visibility: 10 mile(s):0
Sky conditions: clear
Temperature: 52.0 F (11.1 C)
Dew Point: 50.0 F (10.0 C)
Relative Humidity: 92%
Pressure (altimeter): 30.09 in. Hg (1018 hPa)
Pressure tendency: 0.01 inches (0.2 hPa) higher than three hours ago
ob: KHGR 251153Z 00000KT 10SM CLR 11/10 A3009 RMK AO2 SLP197 T01110100 10128 20100 53002
cycle: 12

Station Type Date Time Source
KHGR TAF UTC NOAA

Error!

Example: see airport list